Time;durP1;ratioP1;P1;durP2;ratioP2;P2;SDS_P1;SDS_P2;PMS_P1;PMS_P2;Temp;Humidity;BMP_temperature;BMP_pressure;BME280_temperature;BME280_humidity;BME280_pressure;Samples;Min_cycle;Max_cycle;Signal;HPM_P1;HPM_P2
2022/09/30 00:00:58;;;;;;;10.75;4.53;;;9.70;99.90;;;;;;5132126;27;20191;-53
2022/09/30 00:03:23;;;;;;;7.28;4.60;;;9.70;99.90;;;;;;5132519;27;20168;-53
2022/09/30 00:06:01;;;;;;;9.02;4.90;;;9.70;99.90;;;;;;5132308;27;20620;-53
2022/09/30 00:08:27;;;;;;;9.23;4.30;;;9.60;99.90;;;;;;5132429;27;20194;-53
2022/09/30 00:11:05;;;;;;;9.15;4.00;;;9.70;99.90;;;;;;5130866;28;20269;-53
2022/09/30 00:13:33;;;;;;;11.45;5.30;;;9.60;99.90;;;;;;5132127;27;20175;-53
2022/09/30 00:15:59;;;;;;;9.73;4.82;;;9.50;99.90;;;;;;5132182;27;20204;-52
2022/09/30 00:18:26;;;;;;;9.40;4.78;;;9.60;99.90;;;;;;5132113;27;20668;-53
2022/09/30 00:20:52;;;;;;;12.10;4.63;;;9.50;99.90;;;;;;5132046;27;20644;-53
2022/09/30 00:23:18;;;;;;;14.07;5.03;;;9.50;99.90;;;;;;5132639;27;20176;-53
2022/09/30 00:25:44;;;;;;;9.98;4.40;;;9.50;99.90;;;;;;5132081;27;20163;-53
2022/09/30 00:28:10;;;;;;;7.53;4.70;;;9.50;99.90;;;;;;5132074;27;20163;-53
2022/09/30 00:30:35;;;;;;;8.13;4.47;;;9.50;99.90;;;;;;5132068;27;20256;-53
2022/09/30 00:33:01;;;;;;;12.95;5.15;;;9.60;99.90;;;;;;5134509;27;20167;-53
2022/09/30 00:35:27;;;;;;;10.10;5.43;;;9.60;99.90;;;;;;5135974;27;20177;-53
2022/09/30 00:37:54;;;;;;;11.68;5.40;;;9.60;99.90;;;;;;5135621;27;20672;-53
2022/09/30 00:40:20;;;;;;;7.90;5.38;;;9.60;99.90;;;;;;5135916;27;20629;-53
2022/09/30 00:42:46;;;;;;;9.07;5.78;;;9.70;99.90;;;;;;5136324;27;20254;-53
2022/09/30 00:45:12;;;;;;;7.32;5.32;;;9.60;99.90;;;;;;5135624;27;20570;-53
2022/09/30 00:48:05;;;;;;;9.27;5.22;;;9.60;99.90;;;;;;5135468;27;20191;-53
2022/09/30 00:50:33;;;;;;;8.60;5.22;;;9.60;99.90;;;;;;5135706;27;20179;-52
2022/09/30 00:53:17;;;;;;;11.15;6.15;;;9.50;99.90;;;;;;5135471;27;20262;-53
2022/09/30 00:56:06;;;;;;;10.27;5.53;;;9.50;99.90;;;;;;5135181;27;20204;-53
2022/09/30 00:58:32;;;;;;;10.45;4.97;;;9.50;99.90;;;;;;5135226;27;20200;-52
2022/09/30 01:01:00;;;;;;;15.77;6.28;;;9.50;99.90;;;;;;5135529;27;20199;-53
2022/09/30 01:03:32;;;;;;;9.20;5.03;;;9.50;99.90;;;;;;5135144;27;20164;-53
2022/09/30 01:05:58;;;;;;;7.63;5.70;;;9.50;99.90;;;;;;5135266;27;20624;-53
2022/09/30 01:08:25;;;;;;;7.18;5.03;;;9.50;99.90;;;;;;5135064;27;20193;-52
2022/09/30 01:10:51;;;;;;;7.10;5.38;;;9.30;99.90;;;;;;5135173;27;20167;-52
2022/09/30 01:13:19;;;;;;;12.02;5.70;;;9.30;99.90;;;;;;5135403;27;20197;-53
2022/09/30 01:16:23;;;;;;;12.02;5.53;;;9.40;99.90;;;;;;5135360;27;20172;-52
2022/09/30 01:19:30;;;;;;;12.57;5.57;;;9.40;99.90;;;;;;5135189;27;20234;-53
2022/09/30 01:22:08;;;;;;;6.93;4.90;;;9.30;99.90;;;;;;5134513;27;20236;-52
2022/09/30 01:25:12;;;;;;;6.95;4.85;;;9.30;99.90;;;;;;5134844;27;20503;-53
2022/09/30 01:27:56;;;;;;;11.63;5.53;;;9.10;99.90;;;;;;5135054;27;20166;-53
2022/09/30 01:30:40;;;;;;;10.65;4.70;;;9.00;99.90;;;;;;5134840;27;20620;-52
2022/09/30 01:33:30;;;;;;;5.70;4.70;;;9.00;99.90;;;;;;5134796;27;20174;-53
2022/09/30 01:36:01;;;;;;;10.10;5.57;;;8.90;99.90;;;;;;5134747;27;20235;-53
2022/09/30 01:38:37;;;;;;;9.07;5.72;;;8.90;99.90;;;;;;5134598;27;20652;-53
2022/09/30 01:41:27;;;;;;;16.45;5.82;;;8.90;99.90;;;;;;5134590;27;20160;-53
2022/09/30 01:44:13;;;;;;;18.17;6.10;;;9.00;99.90;;;;;;5133526;27;20175;-53
2022/09/30 01:46:44;;;;;;;15.68;5.47;;;8.90;99.90;;;;;;5134318;27;20628;-53
2022/09/30 01:49:39;;;;;;;11.48;5.70;;;8.90;99.90;;;;;;5134047;27;20170;-53
2022/09/30 01:52:27;;;;;;;17.42;5.90;;;9.00;99.90;;;;;;5134219;27;20171;-53
2022/09/30 01:55:05;;;;;;;16.88;5.35;;;9.00;99.90;;;;;;5134159;27;20253;-53
2022/09/30 01:57:44;;;;;;;13.45;6.82;;;8.90;99.90;;;;;;5134137;27;20644;-53
2022/09/30 02:00:11;;;;;;;15.65;5.80;;;8.90;99.90;;;;;;5134088;27;20168;-53
2022/09/30 02:02:54;;;;;;;26.33;5.78;;;9.00;99.90;;;;;;5134184;27;20629;-53
2022/09/30 02:05:26;;;;;;;13.57;5.50;;;9.00;99.90;;;;;;5133965;27;20537;-53
2022/09/30 02:07:58;;;;;;;20.63;6.30;;;9.00;99.90;;;;;;5134269;27;20172;-53
2022/09/30 02:10:28;;;;;;;13.70;5.95;;;8.90;99.90;;;;;;5133934;27;20529;-53
2022/09/30 02:13:25;;;;;;;17.58;6.25;;;8.90;99.90;;;;;;5133834;27;20202;-52
2022/09/30 02:15:59;;;;;;;22.98;5.72;;;8.90;99.90;;;;;;5117604;27;20180;-52
2022/09/30 02:18:38;;;;;;;13.65;6.00;;;8.90;99.90;;;;;;5133971;27;20203;-53
2022/09/30 02:21:06;;;;;;;12.88;5.72;;;8.90;99.90;;;;;;5133846;27;20160;-53
2022/09/30 02:23:39;;;;;;;25.33;6.72;;;8.80;99.90;;;;;;5133752;27;20212;-53
2022/09/30 02:26:10;;;;;;;19.92;6.40;;;8.80;99.90;;;;;;5133579;27;20176;-53
2022/09/30 02:28:41;;;;;;;17.35;5.80;;;8.90;99.90;;;;;;5133831;27;20191;-53
2022/09/30 02:31:09;;;;;;;12.27;5.45;;;8.90;99.90;;;;;;5133610;27;20171;-53
2022/09/30 02:33:43;;;;;;;17.67;6.20;;;8.70;99.90;;;;;;5133622;27;20167;-53
2022/09/30 02:36:15;;;;;;;18.70;6.32;;;8.80;99.90;;;;;;5133311;27;20255;-53
2022/09/30 02:38:45;;;;;;;27.67;5.78;;;8.70;99.90;;;;;;5133358;27;20208;-53
2022/09/30 02:41:23;;;;;;;9.48;4.55;;;8.70;99.90;;;;;;5133294;27;20160;-53
2022/09/30 02:43:51;;;;;;;16.40;6.18;;;8.60;99.90;;;;;;5133679;27;20172;-53
2022/09/30 02:46:44;;;;;;;10.23;6.28;;;8.60;99.90;;;;;;5133869;27;20171;-53
2022/09/30 02:49:38;;;;;;;15.93;6.82;;;8.60;99.90;;;;;;5133304;27;20168;-54
2022/09/30 02:52:19;;;;;;;14.85;5.78;;;8.60;99.90;;;;;;5133333;27;20164;-53
2022/09/30 02:54:58;;;;;;;10.07;5.70;;;8.60;99.90;;;;;;5133072;27;20215;-53
2022/09/30 02:57:27;;;;;;;14.07;5.60;;;8.60;99.90;;;;;;5132926;27;20217;-53
2022/09/30 02:59:53;;;;;;;14.52;6.32;;;8.60;99.90;;;;;;5133246;27;20226;-53
2022/09/30 03:02:20;;;;;;;14.45;6.18;;;8.60;99.90;;;;;;5133068;27;20168;-53
2022/09/30 03:04:48;;;;;;;7.72;4.72;;;8.60;99.90;;;;;;5133308;27;20201;-53
2022/09/30 03:07:14;;;;;;;14.20;4.35;;;8.50;99.90;;;;;;5133399;27;20163;-53
2022/09/30 03:09:39;;;;;;;10.95;5.07;;;8.40;99.90;;;;;;5132829;27;20524;-53
2022/09/30 03:12:26;;;;;;;8.63;5.05;;;8.40;99.90;;;;;;5133022;27;20205;-53
2022/09/30 03:15:06;;;;;;;10.85;4.95;;;8.40;99.90;;;;;;5132943;27;20172;-53
2022/09/30 03:17:49;;;;;;;15.93;5.65;;;8.30;99.90;;;;;;5132930;27;20521;-53
2022/09/30 03:20:23;;;;;;;9.75;5.20;;;8.30;99.90;;;;;;5133032;27;20575;-53
2022/09/30 03:23:27;;;;;;;10.48;5.25;;;8.20;99.90;;;;;;5132640;27;20247;-53
2022/09/30 03:26:03;;;;;;;8.07;4.40;;;8.20;99.90;;;;;;5132872;27;20175;-53
2022/09/30 03:28:49;;;;;;;15.20;4.72;;;8.10;99.90;;;;;;5132623;27;20159;-53
2022/09/30 03:31:14;;;;;;;7.75;4.32;;;8.20;99.90;;;;;;5133174;27;20172;-53
2022/09/30 03:34:09;;;;;;;14.15;5.03;;;8.10;99.90;;;;;;5132587;27;20167;-53
2022/09/30 03:36:41;;;;;;;9.32;4.32;;;8.10;99.90;;;;;;5116942;27;20176;-53
2022/09/30 03:39:10;;;;;;;9.50;4.95;;;8.00;99.90;;;;;;5132432;27;20672;-53
2022/09/30 03:41:46;;;;;;;6.55;4.55;;;8.00;99.90;;;;;;5132572;27;20168;-53
2022/09/30 03:44:32;;;;;;;7.25;4.45;;;8.00;99.90;;;;;;5132674;27;20235;-53
2022/09/30 03:47:05;;;;;;;5.88;4.10;;;8.00;99.90;;;;;;5132647;27;20172;-53
2022/09/30 03:49:36;;;;;;;5.82;4.20;;;8.00;99.90;;;;;;5132318;27;20164;-53
2022/09/30 03:52:07;;;;;;;14.93;5.13;;;7.80;99.90;;;;;;5131034;28;20635;-53
2022/09/30 03:54:37;;;;;;;12.60;5.60;;;7.80;99.90;;;;;;5132228;27;20680;-53
2022/09/30 03:57:04;;;;;;;15.05;5.85;;;7.80;99.90;;;;;;5132264;27;20649;-53
2022/09/30 03:59:29;;;;;;;12.35;5.70;;;7.80;99.90;;;;;;5132446;27;20215;-53
2022/09/30 04:01:58;;;;;;;12.88;5.25;;;7.90;99.90;;;;;;5132348;27;20156;-53
2022/09/30 04:04:24;;;;;;;13.35;5.40;;;7.80;99.90;;;;;;5132357;27;20168;-54
2022/09/30 04:06:49;;;;;;;11.85;5.30;;;7.80;99.90;;;;;;5132876;27;20575;-53
2022/09/30 04:09:15;;;;;;;10.48;5.28;;;7.90;99.90;;;;;;5136729;27;20191;-53
2022/09/30 04:11:41;;;;;;;9.65;4.78;;;7.80;99.90;;;;;;5136134;27;20197;-53
2022/09/30 04:14:07;;;;;;;10.25;5.13;;;7.80;99.90;;;;;;5136254;27;20622;-53
2022/09/30 04:16:33;;;;;;;11.00;6.00;;;7.80;99.90;;;;;;5136165;27;20247;-54
2022/09/30 04:18:58;;;;;;;14.45;5.90;;;7.80;99.90;;;;;;5135973;27;20200;-53
2022/09/30 04:21:27;;;;;;;13.18;5.95;;;7.70;99.90;;;;;;5136108;27;20247;-53
2022/09/30 04:23:54;;;;;;;17.55;6.25;;;7.80;99.90;;;;;;5136203;27;20175;-53
2022/09/30 04:26:20;;;;;;;8.95;5.30;;;7.80;99.90;;;;;;5135904;27;20176;-53
2022/09/30 04:28:46;;;;;;;9.43;5.97;;;7.80;99.90;;;;;;5136527;27;20195;-53
2022/09/30 04:31:12;;;;;;;11.05;6.63;;;7.80;99.90;;;;;;5135926;27;20156;-53
2022/09/30 04:33:39;;;;;;;18.90;10.25;;;7.70;99.90;;;;;;5135893;27;20187;-53
2022/09/30 04:36:06;;;;;;;20.00;9.82;;;7.70;99.90;;;;;;5135809;27;20172;-54
2022/09/30 04:38:32;;;;;;;21.00;11.07;;;7.80;99.90;;;;;;5135969;27;20208;-54
2022/09/30 04:41:02;;;;;;;20.88;10.73;;;7.80;99.90;;;;;;5135550;27;20172;-55
2022/09/30 04:43:28;;;;;;;18.70;9.30;;;7.70;99.90;;;;;;5135771;27;20168;-53
2022/09/30 04:45:54;;;;;;;14.20;7.50;;;7.70;99.90;;;;;;5135518;27;20203;-53
2022/09/30 04:48:21;;;;;;;8.45;5.93;;;7.70;99.90;;;;;;5135412;27;20180;-53
2022/09/30 04:50:47;;;;;;;10.55;7.28;;;7.70;99.90;;;;;;5136378;27;20168;-53
2022/09/30 04:53:14;;;;;;;15.55;7.90;;;7.60;99.90;;;;;;5135685;27;20209;-53
2022/09/30 04:55:41;;;;;;;8.15;5.32;;;7.60;99.90;;;;;;5135256;27;20230;-54
2022/09/30 04:58:06;;;;;;;5.70;4.15;;;7.60;99.90;;;;;;5135259;27;20683;-53
2022/09/30 05:00:32;;;;;;;9.55;5.20;;;7.60;99.90;;;;;;5135245;27;20168;-53
2022/09/30 05:02:57;;;;;;;19.65;10.80;;;7.60;99.90;;;;;;5135383;27;20159;-53
2022/09/30 05:05:23;;;;;;;19.27;9.82;;;7.60;99.90;;;;;;5135520;27;20163;-53
2022/09/30 05:07:49;;;;;;;16.67;8.68;;;7.50;99.90;;;;;;5135173;27;20632;-53
2022/09/30 05:10:15;;;;;;;14.10;8.20;;;7.50;99.90;;;;;;5135364;27;20274;-53
2022/09/30 05:12:41;;;;;;;13.50;7.50;;;7.50;99.90;;;;;;5135248;27;20171;-53
2022/09/30 05:15:08;;;;;;;15.27;6.68;;;7.50;99.90;;;;;;5134647;27;20191;-53
2022/09/30 05:17:33;;;;;;;19.48;8.43;;;7.40;99.90;;;;;;5135013;27;20175;-53
2022/09/30 05:19:59;;;;;;;13.93;8.35;;;7.40;99.90;;;;;;5134979;27;20656;-53
2022/09/30 05:22:25;;;;;;;18.45;8.75;;;7.40;99.90;;;;;;5134897;27;20179;-53
2022/09/30 05:24:51;;;;;;;14.10;7.75;;;7.40;99.90;;;;;;5134825;27;20247;-53
2022/09/30 05:27:18;;;;;;;15.25;7.35;;;7.40;99.90;;;;;;5135254;27;20254;-53
2022/09/30 05:29:43;;;;;;;15.07;7.40;;;7.40;99.90;;;;;;5135064;27;20520;-52
2022/09/30 05:32:10;;;;;;;13.32;6.28;;;7.50;99.90;;;;;;5133501;27;20177;-53
2022/09/30 05:34:37;;;;;;;6.63;4.68;;;7.30;99.90;;;;;;5134741;27;20633;-53
2022/09/30 05:37:03;;;;;;;9.07;4.60;;;7.30;99.90;;;;;;5134815;27;20172;-53
2022/09/30 05:39:28;;;;;;;9.77;4.70;;;7.20;99.90;;;;;;5134759;27;20199;-53
2022/09/30 05:41:56;;;;;;;7.32;3.90;;;7.20;99.90;;;;;;5134527;27;20221;-53
2022/09/30 05:44:21;;;;;;;9.15;4.60;;;7.20;99.90;;;;;;5134529;27;20686;-53
2022/09/30 05:46:47;;;;;;;4.57;3.85;;;7.20;99.90;;;;;;5133072;27;20164;-53
2022/09/30 05:49:13;;;;;;;4.60;3.83;;;7.20;99.90;;;;;;5134608;27;20618;-53
2022/09/30 05:51:38;;;;;;;9.63;4.00;;;7.10;99.90;;;;;;5134094;27;20178;-53
2022/09/30 05:54:04;;;;;;;7.43;4.10;;;7.20;99.90;;;;;;5134246;27;20164;-53
2022/09/30 05:56:30;;;;;;;6.10;4.03;;;7.20;99.90;;;;;;5134114;27;20178;-53
2022/09/30 05:58:55;;;;;;;5.35;3.92;;;7.20;99.90;;;;;;5133911;27;20638;-53
2022/09/30 06:01:21;;;;;;;9.90;4.63;;;7.30;99.90;;;;;;5134014;27;20633;-53
2022/09/30 06:03:47;;;;;;;7.32;3.95;;;7.30;99.90;;;;;;5134668;27;20172;-53
2022/09/30 06:06:13;;;;;;;7.82;3.90;;;7.30;99.90;;;;;;5134249;27;20625;-53
2022/09/30 06:08:40;;;;;;;12.05;5.22;;;7.40;99.90;;;;;;5133881;27;20175;-53
2022/09/30 06:11:17;;;;;;;8.73;4.38;;;7.30;99.90;;;;;;5133812;27;20191;-53
2022/09/30 06:13:43;;;;;;;7.50;5.22;;;7.50;99.90;;;;;;5134121;27;20167;-53
2022/09/30 06:16:10;;;;;;;7.43;4.65;;;7.50;99.90;;;;;;5133731;27;20168;-53
2022/09/30 06:18:39;;;;;;;12.43;5.80;;;7.50;99.90;;;;;;5133646;27;20210;-53
2022/09/30 06:21:04;;;;;;;10.90;5.53;;;7.50;99.90;;;;;;5134003;27;20250;-53
2022/09/30 06:23:33;;;;;;;56.20;20.48;;;7.60;99.90;;;;;;5133933;27;20569;-53
2022/09/30 06:26:00;;;;;;;70.43;33.15;;;7.60;99.90;;;;;;5133942;27;20179;-53
2022/09/30 06:28:26;;;;;;;19.08;9.70;;;7.70;99.90;;;;;;5133615;27;20172;-53
2022/09/30 06:30:52;;;;;;;20.85;11.90;;;7.70;99.90;;;;;;5133234;27;20170;-53
2022/09/30 06:33:18;;;;;;;13.70;8.40;;;7.80;99.90;;;;;;5133809;27;20168;-53
2022/09/30 06:35:46;;;;;;;5.78;4.60;;;7.80;99.90;;;;;;5133900;27;20216;-53
2022/09/30 06:38:14;;;;;;;8.70;5.05;;;7.90;99.90;;;;;;5133307;27;20653;-53
2022/09/30 06:40:40;;;;;;;12.70;4.78;;;8.00;99.90;;;;;;5133410;27;20206;-53
2022/09/30 06:43:06;;;;;;;10.73;5.07;;;8.00;99.90;;;;;;5133282;27;20191;-52
2022/09/30 06:45:34;;;;;;;7.43;5.15;;;8.10;99.90;;;;;;5133507;27;20579;-53
2022/09/30 06:48:01;;;;;;;6.35;5.15;;;8.20;99.90;;;;;;5133354;27;20215;-53
2022/09/30 06:50:30;;;;;;;7.93;5.05;;;8.20;99.90;;;;;;5133461;27;20176;-53
2022/09/30 06:52:58;;;;;;;9.30;5.25;;;8.40;99.90;;;;;;5133023;27;20167;-52
2022/09/30 06:55:25;;;;;;;7.32;5.00;;;8.50;99.90;;;;;;5133004;27;20272;-52
2022/09/30 06:57:52;;;;;;;11.73;7.10;;;8.60;99.90;;;;;;5133020;27;20183;-53
2022/09/30 07:00:17;;;;;;;9.13;6.75;;;8.70;99.90;;;;;;5132855;27;20180;-53
2022/09/30 07:02:43;;;;;;;12.68;5.75;;;8.90;99.90;;;;;;5133365;27;20160;-52
2022/09/30 07:05:08;;;;;;;7.22;5.43;;;9.20;99.90;;;;;;5132904;27;20168;-53
2022/09/30 07:07:35;;;;;;;6.65;4.47;;;9.10;99.90;;;;;;5133011;27;20196;-52
2022/09/30 07:10:01;;;;;;;5.75;3.85;;;9.20;99.90;;;;;;5133157;27;20200;-53
2022/09/30 07:12:27;;;;;;;5.47;3.30;;;9.30;99.90;;;;;;5132812;27;20163;-52
2022/09/30 07:14:54;;;;;;;5.80;3.42;;;9.50;99.90;;;;;;5132799;27;20501;-52
2022/09/30 07:17:20;;;;;;;8.25;3.72;;;9.60;99.90;;;;;;5133021;27;20168;-53
2022/09/30 07:19:45;;;;;;;5.50;3.72;;;9.80;99.90;;;;;;5132949;27;20272;-53
2022/09/30 07:22:26;;;;;;;5.18;3.72;;;9.90;99.90;;;;;;5132679;27;20182;-53
2022/09/30 07:24:52;;;;;;;7.10;3.53;;;10.10;99.90;;;;;;5133058;27;20225;-53
2022/09/30 07:27:18;;;;;;;8.00;3.65;;;10.20;99.90;;;;;;5132747;27;20580;-53
2022/09/30 07:29:44;;;;;;;8.25;3.28;;;10.10;99.90;;;;;;5132836;27;20175;-53
2022/09/30 07:32:11;;;;;;;5.18;3.60;;;10.30;99.90;;;;;;5132584;27;20160;-53
2022/09/30 07:34:39;;;;;;;9.38;3.80;;;10.50;99.90;;;;;;5132712;27;20174;-53
2022/09/30 07:37:05;;;;;;;6.70;4.07;;;10.50;99.90;;;;;;5132499;27;20644;-53
2022/09/30 07:39:31;;;;;;;8.23;4.18;;;10.70;99.90;;;;;;5131208;28;20317;-52
2022/09/30 07:41:56;;;;;;;6.63;3.50;;;10.70;99.90;;;;;;5133338;27;20624;-53
2022/09/30 07:44:24;;;;;;;5.38;4.50;;;10.90;99.90;;;;;;5136900;27;20204;-53
2022/09/30 07:46:49;;;;;;;9.13;4.20;;;11.00;99.90;;;;;;5137118;27;20175;-53
2022/09/30 07:49:24;;;;;;;6.28;4.78;;;11.10;99.90;;;;;;5137086;27;20168;-52
2022/09/30 07:51:51;;;;;;;7.05;3.83;;;11.30;99.90;;;;;;5136928;27;20181;-52
2022/09/30 07:54:21;;;;;;;7.70;3.92;;;11.40;99.90;;;;;;5136808;27;20207;-53
2022/09/30 07:56:47;;;;;;;7.55;4.40;;;11.50;99.90;;;;;;5136946;27;20576;-53
2022/09/30 07:59:13;;;;;;;8.65;4.35;;;11.60;99.90;;;;;;5135446;27;20272;-53
2022/09/30 08:01:39;;;;;;;7.35;3.80;;;11.80;99.90;;;;;;5136456;27;20197;-53
2022/09/30 08:04:07;;;;;;;6.30;4.40;;;12.00;99.90;;;;;;5136289;27;20246;-53
2022/09/30 08:06:38;;;;;;;11.35;4.93;;;12.10;99.90;;;;;;5136243;27;20160;-53
2022/09/30 08:09:04;;;;;;;4.93;4.32;;;12.10;99.90;;;;;;5136273;27;20254;-53
2022/09/30 08:11:33;;;;;;;5.70;4.07;;;12.10;99.90;;;;;;5136152;27;20250;-53
2022/09/30 08:13:59;;;;;;;6.75;4.20;;;12.10;99.90;;;;;;5136166;27;20540;-53
2022/09/30 08:16:25;;;;;;;9.32;4.30;;;12.20;99.90;;;;;;5136215;27;20160;-53
2022/09/30 08:18:55;;;;;;;7.85;4.18;;;12.30;99.90;;;;;;5136026;27;20565;-53
2022/09/30 08:21:21;;;;;;;6.60;3.83;;;12.20;99.90;;;;;;5136226;27;20198;-53
2022/09/30 08:23:46;;;;;;;12.85;5.30;;;12.30;99.90;;;;;;5136600;27;20213;-53
2022/09/30 08:26:14;;;;;;;9.30;4.38;;;12.30;99.90;;;;;;5136327;27;20252;-53
2022/09/30 08:28:39;;;;;;;11.25;5.10;;;12.40;99.90;;;;;;5136157;27;20282;-53
2022/09/30 08:31:10;;;;;;;11.00;4.45;;;12.50;99.90;;;;;;5135803;27;20247;-53
2022/09/30 08:33:36;;;;;;;9.45;4.65;;;12.70;99.90;;;;;;5135885;27;20168;-53
2022/09/30 08:36:06;;;;;;;9.43;5.07;;;12.70;99.90;;;;;;5135764;27;20160;-52
2022/09/30 08:38:33;;;;;;;11.15;5.97;;;12.90;99.90;;;;;;5135602;27;20207;-53
2022/09/30 08:41:40;;;;;;;6.28;4.32;;;12.90;99.90;;;;;;5135870;27;20178;-52
2022/09/30 08:44:14;;;;;;;7.35;3.88;;;13.10;99.90;;;;;;5135783;27;20183;-52
2022/09/30 08:46:53;;;;;;;8.43;4.55;;;13.30;99.90;;;;;;5135481;27;20155;-52
2022/09/30 08:49:43;;;;;;;7.80;4.00;;;13.30;99.90;;;;;;5135421;27;20168;-53
2022/09/30 08:52:19;;;;;;;9.55;5.45;;;13.20;99.90;;;;;;5135402;27;20205;-53
2022/09/30 08:54:49;;;;;;;9.07;4.50;;;13.60;99.90;;;;;;5135496;27;20211;-52
2022/09/30 08:57:15;;;;;;;10.82;5.28;;;13.60;99.90;;;;;;5135739;27;20164;-52
2022/09/30 08:59:51;;;;;;;7.25;4.75;;;13.80;99.90;;;;;;5135042;27;20241;-53
2022/09/30 09:02:21;;;;;;;10.30;4.88;;;13.90;99.90;;;;;;5135276;27;20167;-52
2022/09/30 09:04:51;;;;;;;8.98;4.75;;;13.90;99.90;;;;;;5135205;27;20164;-52
2022/09/30 09:07:37;;;;;;;7.53;4.95;;;14.10;99.90;;;;;;5135607;27;20163;-52
2022/09/30 09:10:15;;;;;;;8.13;4.47;;;14.10;99.90;;;;;;5135077;27;20175;-52
2022/09/30 09:12:58;;;;;;;34.13;5.75;;;14.10;99.90;;;;;;5135274;27;20263;-52
2022/09/30 09:15:55;;;;;;;7.28;4.57;;;14.20;99.90;;;;;;5134965;27;20164;-52
2022/09/30 09:18:42;;;;;;;9.63;4.75;;;14.20;99.90;;;;;;5134899;27;20196;-52
2022/09/30 09:21:23;;;;;;;11.73;6.63;;;14.40;99.90;;;;;;5134867;27;20162;-52
2022/09/30 09:23:52;;;;;;;10.27;6.20;;;14.30;99.90;;;;;;5135006;27;20172;-52
2022/09/30 09:26:18;;;;;;;8.93;5.75;;;14.30;99.90;;;;;;5134904;27;20153;-52
2022/09/30 09:28:43;;;;;;;16.83;8.02;;;14.50;99.90;;;;;;5135079;27;20250;-52
2022/09/30 09:31:15;;;;;;;13.90;5.15;;;14.70;99.90;;;;;;5134675;27;20195;-52
2022/09/30 09:33:42;;;;;;;8.30;5.00;;;14.70;99.90;;;;;;5135210;27;20175;-52
2022/09/30 09:36:26;;;;;;;10.10;5.43;;;14.60;99.90;;;;;;5134635;27;20199;-52
2022/09/30 09:39:33;;;;;;;7.82;4.90;;;14.70;99.90;;;;;;5134476;27;20266;-52
2022/09/30 09:42:24;;;;;;;9.23;5.28;;;14.50;99.90;;;;;;5134506;27;20163;-52
2022/09/30 09:44:57;;;;;;;6.50;4.70;;;14.60;99.90;;;;;;5134489;27;20729;-52
2022/09/30 09:47:23;;;;;;;8.27;5.03;;;14.60;99.90;;;;;;5134236;27;20164;-52
2022/09/30 09:49:56;;;;;;;6.35;5.30;;;14.40;99.90;;;;;;5134297;27;20171;-52
2022/09/30 09:52:28;;;;;;;7.55;5.03;;;14.50;99.90;;;;;;5134163;27;20193;-53
2022/09/30 09:54:57;;;;;;;9.38;5.88;;;14.50;99.90;;;;;;5134084;27;20684;-53
2022/09/30 09:57:32;;;;;;;12.10;5.07;;;14.80;99.90;;;;;;5134236;27;20175;-53
2022/09/30 10:03:08;;;;;;;6.40;5.10;;;14.90;99.90;;;;;;5134397;27;20205;-52
2022/09/30 10:05:41;;;;;;;8.43;5.20;;;14.40;99.90;;;;;;5133241;27;20176;-53
2022/09/30 10:08:12;;;;;;;7.47;5.07;;;14.40;99.90;;;;;;5133863;27;20182;-53
2022/09/30 10:11:03;;;;;;;9.05;6.32;;;14.20;99.90;;;;;;5134030;27;20156;-53
2022/09/30 10:13:37;;;;;;;10.60;5.20;;;14.00;99.90;;;;;;5128740;27;20187;-53
2022/09/30 10:16:03;;;;;;;8.35;5.47;;;13.90;99.90;;;;;;5133834;27;20163;-52
2022/09/30 10:18:35;;;;;;;7.05;5.70;;;13.70;99.90;;;;;;5133929;27;20294;-53
2022/09/30 10:21:19;;;;;;;6.13;5.28;;;13.70;99.90;;;;;;5133689;27;20164;-53
2022/09/30 10:23:44;;;;;;;10.10;6.57;;;13.70;99.90;;;;;;5134056;27;20171;-52
2022/09/30 10:26:13;;;;;;;9.18;5.72;;;14.00;99.90;;;;;;5133539;27;20164;-52
2022/09/30 10:28:51;;;;;;;8.38;5.10;;;14.00;99.90;;;;;;5133487;27;20189;-52
2022/09/30 10:31:20;;;;;;;9.10;4.80;;;14.10;99.90;;;;;;5133752;27;20579;-52
2022/09/30 10:33:52;;;;;;;11.73;4.72;;;14.10;99.90;;;;;;5134011;27;20206;-52
2022/09/30 10:36:20;;;;;;;8.95;4.60;;;14.40;99.90;;;;;;5133377;27;20669;-52
2022/09/30 10:39:05;;;;;;;6.68;4.78;;;14.20;99.90;;;;;;5133570;27;20204;-52
2022/09/30 10:41:33;;;;;;;13.35;5.40;;;13.90;99.90;;;;;;5133605;27;20164;-52
2022/09/30 10:44:05;;;;;;;7.93;4.40;;;13.80;99.90;;;;;;5133213;27;20168;-52
2022/09/30 10:46:37;;;;;;;7.35;5.25;;;13.80;99.90;;;;;;5133202;27;20160;-52
2022/09/30 10:49:27;;;;;;;11.38;4.68;;;13.90;99.90;;;;;;5133376;27;20171;-52
2022/09/30 10:51:54;;;;;;;8.90;4.80;;;13.90;99.90;;;;;;5133057;27;20160;-52
2022/09/30 10:54:38;;;;;;;6.70;4.90;;;13.80;99.90;;;;;;5133201;27;20571;-52
2022/09/30 10:57:12;;;;;;;10.00;4.82;;;13.80;99.90;;;;;;5133095;27;20262;-52
2022/09/30 10:59:40;;;;;;;6.40;4.85;;;13.80;99.90;;;;;;5132935;27;20196;-52
2022/09/30 11:02:28;;;;;;;7.93;4.78;;;14.00;99.90;;;;;;5132914;27;20255;-52
2022/09/30 11:05:21;;;;;;;8.73;4.05;;;13.90;99.90;;;;;;5132949;27;20199;-52
2022/09/30 11:08:12;;;;;;;8.00;4.68;;;14.00;99.90;;;;;;5133126;27;20172;-52
2022/09/30 11:10:44;;;;;;;6.47;4.10;;;13.90;99.90;;;;;;5132940;27;20167;-52
2022/09/30 11:13:31;;;;;;;5.60;3.60;;;14.30;99.90;;;;;;5132803;27;20621;-53
2022/09/30 11:16:09;;;;;;;9.50;4.22;;;14.50;99.90;;;;;;5132493;27;20625;-53
2022/09/30 11:18:50;;;;;;;8.05;4.18;;;14.50;99.90;;;;;;5132666;27;20199;-53
2022/09/30 11:21:26;;;;;;;7.47;4.13;;;14.50;99.90;;;;;;5132779;27;20213;-53
2022/09/30 11:24:04;;;;;;;5.25;3.65;;;14.80;99.90;;;;;;5132645;27;20209;-52
2022/09/30 11:26:57;;;;;;;6.63;3.58;;;15.20;99.90;;;;;;5132533;27;20160;-52
2022/09/30 11:29:35;;;;;;;5.65;3.88;;;15.20;99.90;;;;;;5132503;27;20522;-52
2022/09/30 11:32:28;;;;;;;8.55;4.38;;;15.20;99.90;;;;;;5132538;27;20166;-53
2022/09/30 11:35:22;;;;;;;6.85;3.88;;;15.20;99.90;;;;;;5111111;27;20536;-52
2022/09/30 11:37:48;;;;;;;10.70;3.95;;;15.30;99.90;;;;;;5133030;27;20167;-53
2022/09/30 11:40:30;;;;;;;7.10;4.20;;;15.70;99.90;;;;;;5132096;28;20168;-52
2022/09/30 11:43:27;;;;;;;7.10;3.78;;;15.60;99.90;;;;;;5133168;27;20216;-53
2022/09/30 11:46:10;;;;;;;7.32;3.90;;;15.50;99.90;;;;;;5130443;28;20612;-53
2022/09/30 11:49:05;;;;;;;5.13;3.42;;;16.30;99.90;;;;;;5132393;27;20523;-53
2022/09/30 11:51:36;;;;;;;4.90;2.80;;;16.30;99.90;;;;;;5132176;27;20168;-53
2022/09/30 11:54:16;;;;;;;5.55;3.88;;;16.60;99.90;;;;;;5132444;27;20532;-53
2022/09/30 11:57:05;;;;;;;5.15;3.03;;;16.90;99.90;;;;;;5132615;27;20700;-52
2022/09/30 11:59:42;;;;;;;7.38;3.40;;;16.90;99.90;;;;;;5132232;27;20339;-52
2022/09/30 12:02:39;;;;;;;7.05;3.72;;;16.90;99.90;;;;;;5132134;27;20276;-53
2022/09/30 12:05:27;;;;;;;8.27;2.60;;;16.60;99.90;;;;;;5132192;27;20168;-53
2022/09/30 12:08:03;;;;;;;4.05;2.90;;;16.40;99.90;;;;;;5132427;27;20195;-52
2022/09/30 12:10:34;;;;;;;4.65;2.72;;;16.50;99.90;;;;;;5132218;27;20183;-53
2022/09/30 12:13:13;;;;;;;5.38;2.83;;;16.40;99.90;;;;;;5132268;27;20164;-53
2022/09/30 12:15:43;;;;;;;4.22;2.60;;;16.40;99.90;;;;;;5130917;28;20198;-52
2022/09/30 12:18:20;;;;;;;5.97;2.50;;;16.50;99.90;;;;;;5131959;27;20200;-53
2022/09/30 12:21:02;;;;;;;2.83;2.35;;;16.30;99.90;;;;;;5132716;27;20175;-52
2022/09/30 12:23:53;;;;;;;6.43;2.42;;;16.00;99.90;;;;;;5132246;27;20202;-52
2022/09/30 12:26:19;;;;;;;4.70;2.20;;;16.30;99.90;;;;;;5132087;27;20194;-53
2022/09/30 12:32:32;;;;;;;4.00;2.65;;;16.80;99.90;;;;;;5136140;27;20187;-52
2022/09/30 12:35:00;;;;;;;2.53;2.33;;;16.80;99.90;;;;;;5132851;27;20701;-52
2022/09/30 12:37:57;;;;;;;4.22;3.25;;;16.90;99.90;;;;;;5135818;27;20164;-53
2022/09/30 12:40:45;;;;;;;7.60;3.08;;;16.90;99.90;;;;;;5135707;27;20168;-53
2022/09/30 12:43:22;;;;;;;5.85;3.13;;;16.90;99.90;;;;;;5135981;27;20182;-53
2022/09/30 12:46:13;;;;;;;7.65;2.80;;;16.90;99.90;;;;;;5135560;27;20160;-52
2022/09/30 12:49:05;;;;;;;5.00;2.53;;;17.10;99.90;;;;;;5135559;27;20164;-53
2022/09/30 12:51:37;;;;;;;3.20;2.30;;;17.20;99.90;;;;;;5135175;27;20191;-53
2022/09/30 12:54:17;;;;;;;5.28;2.40;;;17.20;99.90;;;;;;5135529;27;20172;-53
2022/09/30 12:56:48;;;;;;;3.13;2.30;;;17.30;99.90;;;;;;5135795;27;20295;-53
2022/09/30 12:59:18;;;;;;;4.50;2.47;;;17.40;99.90;;;;;;5135784;27;20215;-53
2022/09/30 13:01:44;;;;;;;8.35;2.55;;;16.70;99.90;;;;;;5135539;27;20168;-52
2022/09/30 13:04:29;;;;;;;2.75;2.50;;;17.90;99.90;;;;;;5135202;27;20213;-53
2022/09/30 13:06:55;;;;;;;5.00;2.28;;;17.80;99.90;;;;;;5135557;27;20291;-52
2022/09/30 13:09:59;;;;;;;2.15;1.95;;;17.70;99.90;;;;;;5135242;27;20168;-53
2022/09/30 13:12:38;;;;;;;4.45;2.40;;;17.90;99.90;;;;;;5135134;27;20160;-53
2022/09/30 13:15:28;;;;;;;3.80;2.10;;;17.90;99.90;;;;;;5133644;27;20689;-52
2022/09/30 13:17:56;;;;;;;5.70;2.30;;;17.70;99.90;;;;;;5135053;27;20709;-52
2022/09/30 13:21:13;;;;;;;4.53;2.50;;;17.40;99.90;;;;;;5134811;27;20254;-52
2022/09/30 13:23:50;;;;;;;4.43;2.33;;;17.40;99.90;;;;;;5132327;27;20536;-52
2022/09/30 13:26:27;;;;;;;6.25;2.30;;;17.30;99.90;;;;;;5135377;27;20179;-52